createdAt,value
2023-01-13T00:01:55.376Z,1.42
2023-01-13T00:06:02.564Z,1.77
2023-01-13T00:10:11.105Z,1.10
2023-01-13T00:14:18.217Z,1.10
2023-01-13T00:18:25.463Z,3.05
2023-01-13T00:22:36.568Z,1.17
2023-01-13T00:26:43.310Z,2.10
2023-01-13T00:30:50.493Z,1.35
2023-01-13T00:34:57.477Z,1.75
2023-01-13T00:39:04.676Z,1.88
2023-01-13T00:43:23.322Z,1.30
2023-01-13T00:47:30.125Z,2.35
2023-01-13T00:51:36.847Z,1.25
2023-01-13T00:55:43.624Z,1.00
2023-01-13T00:59:50.405Z,1.15
2023-01-13T01:03:57.202Z,2.20
2023-01-13T01:08:04.011Z,2.08
2023-01-13T01:12:10.789Z,3.22
2023-01-13T01:16:19.650Z,1.70
2023-01-13T01:20:26.458Z,2.10
2023-01-13T01:24:33.235Z,3.42
2023-01-13T01:28:40.522Z,1.70
2023-01-13T01:32:47.241Z,1.90
2023-01-13T01:36:54.007Z,2.90
2023-01-13T01:41:00.802Z,1.77
2023-01-13T01:45:25.020Z,2.65
2023-01-13T01:49:36.756Z,2.08
2023-01-13T01:53:44.025Z,2.55
2023-01-13T01:57:56.849Z,2.60
2023-01-13T02:02:03.802Z,1.70
2023-01-13T02:06:11.954Z,2.53
2023-01-13T02:10:21.891Z,1.73
2023-01-13T02:14:30.570Z,2.00
2023-01-13T02:18:50.327Z,2.13
2023-01-13T02:22:59.837Z,2.90
2023-01-13T02:27:28.591Z,2.90
2023-01-13T02:31:44.468Z,2.40
2023-01-13T02:36:15.526Z,2.97
2023-01-13T02:40:27.101Z,2.83
2023-01-13T02:44:44.161Z,2.93
2023-01-13T02:48:54.484Z,4.80
2023-01-13T02:53:08.579Z,2.67
2023-01-13T02:57:17.578Z,3.28
2023-01-13T03:01:24.804Z,2.08
2023-01-13T03:05:33.222Z,2.78
2023-01-13T03:09:45.199Z,3.08
2023-01-13T03:13:57.708Z,2.63
2023-01-13T03:22:48.696Z,2.80
2023-01-13T03:27:08.257Z,3.70
2023-01-13T03:31:21.424Z,2.30
2023-01-13T03:35:32.497Z,2.38
2023-01-13T03:39:47.077Z,2.03
2023-01-13T03:44:23.492Z,1.77
2023-01-13T03:48:34.375Z,1.70
2023-01-13T03:52:47.569Z,2.20
2023-01-13T03:57:01.354Z,2.65
2023-01-13T04:01:19.085Z,3.53
2023-01-13T04:05:27.287Z,2.38
2023-01-13T04:09:49.994Z,2.45
2023-01-13T04:18:15.403Z,2.60
2023-01-13T04:22:22.120Z,2.63
2023-01-13T04:26:28.928Z,2.13
2023-01-13T04:30:36.266Z,1.55
2023-01-13T04:34:43.005Z,2.08
2023-01-13T04:38:50.580Z,2.55
2023-01-13T04:42:57.284Z,1.80
2023-01-13T04:47:04.499Z,1.58
2023-01-13T04:51:11.455Z,2.65
2023-01-13T04:55:19.841Z,1.88
2023-01-13T04:59:26.542Z,1.17
2023-01-13T05:03:33.296Z,2.08
2023-01-13T05:07:40.006Z,1.05
2023-01-13T05:12:05.365Z,0.98
2023-01-13T05:16:31.042Z,0.70
2023-01-13T05:20:37.891Z,0.68
2023-01-13T05:25:03.612Z,0.35
2023-01-13T05:29:10.419Z,1.02
2023-01-13T05:33:20.225Z,0.80
2023-01-13T05:37:28.309Z,0.40
2023-01-13T05:41:53.463Z,0.30
2023-01-13T05:46:05.570Z,0.70
2023-01-13T05:50:12.380Z,0.60
2023-01-13T05:54:19.104Z,0.75
2023-01-13T05:58:27.752Z,1.10
2023-01-13T06:02:34.487Z,0.82
2023-01-13T06:06:43.111Z,0.40
2023-01-13T06:10:49.880Z,0.82
2023-01-13T06:14:56.595Z,0.80
2023-01-13T06:19:03.291Z,0.77
2023-01-13T06:23:11.482Z,1.75
2023-01-13T06:27:18.573Z,1.10
2023-01-13T06:31:28.661Z,0.85
2023-01-13T06:35:39.301Z,0.77
2023-01-13T06:39:46.626Z,1.48
2023-01-13T06:43:53.311Z,0.70
2023-01-13T06:48:00.748Z,0.88
2023-01-13T06:52:07.411Z,0.80
2023-01-13T06:56:14.132Z,1.02
2023-01-13T07:00:22.383Z,1.88
2023-01-13T07:04:29.088Z,0.93
2023-01-13T07:08:35.762Z,1.00
2023-01-13T07:13:01.185Z,1.40
2023-01-13T07:17:07.874Z,1.58
2023-01-13T07:21:18.787Z,1.95
2023-01-13T07:25:26.007Z,0.68
2023-01-13T07:29:32.665Z,3.15
2023-01-13T07:33:39.361Z,0.95
2023-01-13T07:37:46.047Z,0.85
2023-01-13T07:42:11.434Z,0.77
2023-01-13T07:46:18.825Z,1.42
2023-01-13T07:50:25.913Z,1.50
2023-01-13T07:54:40.587Z,1.52
2023-01-13T07:58:50.950Z,1.83
2023-01-13T08:03:02.879Z,0.88
2023-01-13T08:07:09.947Z,1.55
2023-01-13T08:11:17.197Z,1.30
2023-01-13T08:15:23.934Z,1.35
2023-01-13T08:19:30.625Z,0.73
2023-01-13T08:23:37.792Z,1.13
2023-01-13T08:27:44.518Z,1.52
2023-01-13T08:31:51.263Z,1.40
2023-01-13T08:35:58.435Z,1.27
2023-01-13T08:40:06.303Z,0.80
2023-01-13T08:44:12.958Z,0.70
2023-01-13T08:48:19.938Z,3.30
2023-01-13T08:52:26.678Z,1.02
2023-01-13T08:56:35.522Z,2.17
2023-01-13T09:00:43.355Z,0.95
2023-01-13T09:04:50.897Z,2.00
2023-01-13T09:08:58.134Z,1.75
2023-01-13T09:13:13.784Z,1.77
2023-01-13T09:17:20.679Z,1.65
2023-01-13T09:21:27.458Z,2.25
2023-01-13T09:25:36.558Z,1.92
2023-01-13T09:29:43.311Z,1.52
2023-01-13T09:34:08.681Z,1.00
2023-01-13T09:38:15.364Z,2.78
2023-01-13T09:42:43.680Z,1.50
2023-01-13T09:46:53.489Z,2.00
2023-01-13T09:51:24.456Z,1.45
2023-01-13T09:55:36.537Z,1.40
2023-01-13T09:59:43.789Z,2.75
2023-01-13T10:03:50.763Z,1.55
2023-01-13T10:08:27.021Z,1.85
2023-01-13T10:12:52.542Z,2.28
2023-01-13T10:17:21.063Z,1.05
2023-01-13T10:21:51.989Z,2.15
2023-01-13T10:26:10.745Z,0.80
2023-01-13T10:30:24.368Z,1.40
2023-01-13T10:34:31.091Z,1.30
2023-01-13T10:38:48.796Z,1.38
2023-01-13T10:43:06.524Z,1.15
2023-01-13T10:47:25.328Z,1.38
2023-01-13T10:51:38.089Z,1.83
2023-01-13T10:56:01.794Z,1.10
2023-01-13T11:00:26.928Z,1.17
2023-01-13T11:04:42.362Z,2.28
2023-01-13T11:08:51.209Z,1.88
2023-01-13T11:13:25.460Z,1.30
2023-01-13T11:18:00.862Z,1.77
2023-01-13T11:22:16.009Z,1.77
2023-01-13T11:26:40.590Z,2.25
2023-01-13T11:30:56.189Z,1.67
2023-01-13T11:35:14.933Z,1.83
2023-01-13T11:39:35.042Z,2.55
2023-01-13T11:44:07.752Z,2.00
2023-01-13T11:52:55.254Z,2.35
2023-01-13T11:57:32.573Z,1.58
2023-01-13T12:01:58.220Z,0.70
2023-01-13T12:06:34.506Z,1.35
2023-01-13T12:11:05.351Z,2.45
2023-01-13T12:15:27.681Z,1.17
2023-01-13T12:19:34.370Z,1.05
2023-01-13T12:24:06.269Z,2.35
2023-01-13T12:28:49.055Z,1.37
2023-01-13T12:37:43.055Z,2.22
2023-01-13T12:42:23.074Z,0.90
2023-01-13T12:46:29.717Z,1.23
2023-01-13T12:50:37.706Z,1.08
2023-01-13T12:54:44.322Z,1.77
2023-01-13T12:58:51.119Z,1.70
2023-01-13T13:03:13.851Z,1.60
2023-01-13T13:07:29.464Z,1.23
2023-01-13T13:11:57.616Z,2.10
2023-01-13T13:16:26.069Z,1.30
2023-01-13T13:20:53.751Z,0.80
2023-01-13T13:25:20.575Z,1.08
2023-01-13T13:29:44.021Z,1.30
2023-01-13T13:34:17.787Z,1.85
2023-01-13T13:38:58.397Z,0.65
2023-01-13T13:43:30.010Z,0.52
2023-01-13T13:47:38.612Z,1.10
2023-01-13T13:52:03.980Z,1.13
2023-01-13T13:56:23.313Z,1.10
2023-01-13T14:00:33.280Z,0.77
2023-01-13T14:04:40.731Z,0.70
2023-01-13T14:08:50.452Z,1.20
2023-01-13T14:12:59.006Z,0.40
2023-01-13T14:17:05.665Z,1.80
2023-01-13T14:21:15.282Z,0.50
2023-01-13T14:25:47.141Z,0.70
2023-01-13T14:29:55.662Z,0.50
2023-01-13T14:34:32.553Z,0.50
2023-01-13T14:38:31.309Z,0.50
2023-01-13T14:42:37.994Z,1.20
2023-01-13T14:46:45.937Z,0.55
2023-01-13T14:50:52.733Z,0.70
2023-01-13T14:55:11.279Z,0.43
2023-01-13T14:59:42.755Z,0.65
2023-01-13T15:03:50.984Z,0.95
2023-01-13T15:08:09.835Z,0.63
2023-01-13T15:12:31.631Z,0.43
2023-01-13T15:16:38.932Z,1.08
2023-01-13T15:20:46.014Z,0.47
2023-01-13T15:24:52.822Z,0.90
2023-01-13T15:29:01.013Z,0.40
2023-01-13T15:33:13.164Z,0.77
2023-01-13T15:37:19.846Z,0.68
2023-01-13T15:41:45.625Z,0.75
2023-01-13T15:46:11.070Z,0.40
2023-01-13T15:50:18.433Z,0.60
2023-01-13T15:54:25.126Z,0.70
2023-01-13T15:58:31.820Z,0.70
2023-01-13T16:02:38.599Z,1.60
2023-01-13T16:06:45.639Z,1.13
2023-01-13T16:10:52.354Z,0.85
2023-01-13T16:15:00.395Z,1.35
2023-01-13T16:19:07.095Z,0.80
2023-01-13T16:23:14.149Z,1.48
2023-01-13T16:27:23.684Z,0.80
2023-01-13T16:31:33.381Z,0.70
2023-01-13T16:36:08.956Z,0.70
2023-01-13T16:40:07.529Z,1.33
2023-01-13T16:44:14.246Z,1.88
2023-01-13T16:48:22.666Z,0.63
2023-01-13T16:52:29.392Z,0.95
2023-01-13T16:56:36.778Z,1.42
2023-01-13T17:00:46.795Z,1.20
2023-01-13T17:04:53.545Z,0.77
2023-01-13T17:09:02.248Z,1.60
2023-01-13T17:13:15.901Z,2.25
2023-01-13T17:17:27.781Z,0.93
2023-01-13T17:21:34.435Z,2.15
2023-01-13T17:25:41.135Z,1.15
2023-01-13T17:29:47.898Z,0.50
2023-01-13T17:33:55.012Z,1.48
2023-01-13T17:38:02.977Z,0.20
2023-01-13T17:42:10.761Z,0.50
2023-01-13T17:46:18.452Z,0.50
2023-01-13T17:50:27.657Z,1.05
2023-01-13T17:54:34.348Z,1.30
2023-01-13T17:58:41.696Z,0.98
2023-01-13T18:02:48.421Z,1.13
2023-01-13T18:06:56.906Z,0.90
2023-01-13T18:11:03.611Z,0.40
2023-01-13T18:15:10.547Z,0.50
2023-01-13T18:19:36.276Z,0.32
2023-01-13T18:24:01.787Z,0.30
2023-01-13T18:28:08.630Z,0.22
2023-01-13T18:32:15.550Z,0.20
2023-01-13T18:36:22.334Z,0.20
2023-01-13T18:40:29.067Z,0.38
2023-01-13T18:44:35.742Z,0.30
2023-01-13T18:48:42.439Z,0.57
2023-01-13T18:52:49.299Z,0.20
2023-01-13T18:56:57.057Z,0.10
2023-01-13T19:01:05.205Z,0.28
2023-01-13T19:05:11.971Z,0.40
2023-01-13T19:09:27.159Z,0.40
2023-01-13T19:13:35.980Z,0.47
2023-01-13T19:17:44.928Z,0.55
2023-01-13T19:21:52.390Z,0.40
2023-01-13T19:26:04.623Z,0.90
2023-01-13T19:30:11.869Z,0.45
2023-01-13T19:34:18.756Z,0.40
2023-01-13T19:38:27.699Z,0.95
2023-01-13T19:43:09.964Z,0.40
2023-01-13T19:47:17.009Z,1.27
2023-01-13T19:51:23.677Z,0.77
2023-01-13T19:55:31.827Z,0.63
2023-01-13T19:59:40.956Z,0.40
2023-01-13T20:03:47.822Z,0.30
2023-01-13T20:07:54.596Z,0.30
2023-01-13T20:12:20.061Z,0.50
2023-01-13T20:16:30.358Z,0.30
2023-01-13T20:20:37.752Z,0.82
2023-01-13T20:24:44.474Z,0.30
2023-01-13T20:28:51.222Z,0.50
2023-01-13T20:32:57.917Z,0.40
2023-01-13T20:37:04.606Z,0.30
2023-01-13T20:41:29.914Z,0.30
2023-01-13T20:45:36.741Z,0.10
2023-01-13T20:49:43.424Z,0.30
2023-01-13T20:53:50.112Z,0.50
2023-01-13T20:57:56.802Z,0.38
2023-01-13T21:02:11.967Z,0.73
2023-01-13T21:06:20.393Z,1.05
2023-01-13T21:10:27.078Z,0.30
2023-01-13T21:14:52.998Z,0.50
2023-01-13T21:19:10.466Z,0.40
2023-01-13T21:23:17.247Z,1.92
2023-01-13T21:27:24.312Z,0.40
2023-01-13T21:31:31.023Z,0.60
2023-01-13T21:35:38.807Z,0.47
2023-01-13T21:39:45.536Z,0.30
2023-01-13T21:44:10.937Z,0.40
2023-01-13T21:48:17.617Z,0.50
2023-01-13T21:52:26.103Z,0.20
2023-01-13T21:56:33.718Z,0.30
2023-01-13T22:00:43.374Z,0.20
2023-01-13T22:04:50.106Z,0.22
2023-01-13T22:09:00.967Z,0.65
2023-01-13T22:13:29.521Z,0.30
2023-01-13T22:17:36.706Z,0.57
2023-01-13T22:21:43.442Z,0.60
2023-01-13T22:25:50.130Z,0.50
2023-01-13T22:29:58.135Z,0.57
2023-01-13T22:34:04.928Z,1.27
2023-01-13T22:38:12.140Z,0.52
2023-01-13T22:42:18.851Z,0.68
2023-01-13T22:46:25.522Z,0.50
2023-01-13T22:50:33.945Z,0.50
2023-01-13T22:54:40.597Z,0.70
2023-01-13T22:58:47.428Z,0.60
2023-01-13T23:02:54.109Z,1.35
2023-01-13T23:07:00.793Z,1.25
2023-01-13T23:11:12.829Z,0.60
2023-01-13T23:15:20.359Z,0.57
2023-01-13T23:19:27.056Z,0.60
2023-01-13T23:23:34.431Z,0.75
2023-01-13T23:27:41.163Z,1.05
2023-01-13T23:31:47.919Z,0.85
2023-01-13T23:36:03.308Z,0.50
2023-01-13T23:40:10.512Z,0.70
2023-01-13T23:44:17.187Z,0.60
2023-01-13T23:48:23.875Z,0.77
2023-01-13T23:52:30.585Z,0.38
2023-01-13T23:56:39.580Z,0.50
